createdAt,value
2022-09-03T00:04:44.172Z,16.40
2022-09-03T00:09:52.079Z,16.35
2022-09-03T00:15:02.054Z,16.25
2022-09-03T00:20:11.679Z,16.31
2022-09-03T00:25:18.747Z,16.27
2022-09-03T00:30:24.346Z,16.23
2022-09-03T00:35:31.491Z,16.21
2022-09-03T00:40:46.250Z,16.15
2022-09-03T00:46:03.300Z,16.16
2022-09-03T00:51:12.839Z,16.13
2022-09-03T00:56:23.055Z,16.22
2022-09-03T01:01:36.625Z,16.17
2022-09-03T01:06:47.493Z,16.11
2022-09-03T01:12:00.515Z,16.11
2022-09-03T01:17:13.868Z,16.04
2022-09-03T01:22:38.585Z,16.05
2022-09-03T01:27:54.308Z,16.03
2022-09-03T01:33:06.904Z,16.00
2022-09-03T01:38:24.442Z,15.95
2022-09-03T01:43:43.375Z,15.92
2022-09-03T01:48:59.191Z,15.90
2022-09-03T01:54:42.697Z,15.83
2022-09-03T01:59:53.909Z,15.78
2022-09-03T02:05:03.819Z,15.73
2022-09-03T02:10:09.123Z,15.71
2022-09-03T02:15:15.388Z,15.67
2022-09-03T02:20:23.136Z,15.61
2022-09-03T02:25:34.085Z,15.52
2022-09-03T02:30:37.111Z,15.57
2022-09-03T02:35:43.105Z,15.54
2022-09-03T02:40:46.644Z,15.53
2022-09-03T02:45:55.006Z,15.52
2022-09-03T02:50:59.288Z,15.53
2022-09-03T02:56:02.848Z,15.42
2022-09-03T03:01:07.553Z,15.44
2022-09-03T03:06:14.448Z,15.49
2022-09-03T03:11:18.561Z,15.46
2022-09-03T03:16:21.560Z,15.39
2022-09-03T03:21:25.893Z,15.40
2022-09-03T03:26:29.468Z,15.38
2022-09-03T03:31:33.171Z,15.36
2022-09-03T03:36:37.635Z,15.36
2022-09-03T03:41:40.530Z,15.30
2022-09-03T03:46:43.546Z,15.28
2022-09-03T03:51:48.023Z,15.30
2022-09-03T03:56:55.591Z,15.30
2022-09-03T04:01:58.819Z,15.29
2022-09-03T04:07:03.139Z,15.21
2022-09-03T04:12:08.795Z,15.14
2022-09-03T04:17:11.749Z,15.15
2022-09-03T04:22:16.759Z,15.09
2022-09-03T04:27:19.563Z,15.12
2022-09-03T04:32:39.748Z,15.05
2022-09-03T04:37:43.935Z,15.00
2022-09-03T04:42:46.766Z,14.96
2022-09-03T04:47:58.106Z,14.85
2022-09-03T04:53:07.910Z,14.94
2022-09-03T04:58:11.168Z,14.93
2022-09-03T05:03:14.005Z,14.90
2022-09-03T05:08:18.618Z,14.89
2022-09-03T05:13:21.481Z,14.97
2022-09-03T05:18:24.497Z,14.95
2022-09-03T05:23:32.284Z,15.06
2022-09-03T05:28:40.027Z,15.08
2022-09-03T05:33:44.496Z,15.05
2022-09-03T05:38:48.949Z,15.13
2022-09-03T05:43:56.079Z,15.29
2022-09-03T05:48:59.954Z,15.32
2022-09-03T05:54:05.172Z,15.51
2022-09-03T05:59:10.138Z,15.65
2022-09-03T06:04:28.887Z,15.84
2022-09-03T06:09:33.232Z,16.02
2022-09-03T06:14:36.205Z,16.15
2022-09-03T06:19:39.187Z,16.47
2022-09-03T06:24:43.794Z,17.32
2022-09-03T06:29:46.800Z,18.40
2022-09-03T06:34:49.630Z,18.74
2022-09-03T06:39:54.805Z,19.69
2022-09-03T06:44:57.967Z,23.33
2022-09-03T06:50:02.099Z,25.53
2022-09-03T06:55:15.672Z,26.09
2022-09-03T07:00:21.337Z,27.29
2022-09-03T07:05:31.342Z,26.56
2022-09-03T07:10:38.714Z,25.32
2022-09-03T07:15:42.649Z,26.39
2022-09-03T07:20:50.628Z,25.70
2022-09-03T07:26:04.119Z,27.68
2022-09-03T07:31:16.938Z,26.82
2022-09-03T07:36:21.989Z,27.09
2022-09-03T07:41:30.911Z,27.12
2022-09-03T07:46:46.230Z,27.08
2022-09-03T07:51:53.167Z,27.75
2022-09-03T07:57:02.325Z,26.81
2022-09-03T08:02:07.701Z,21.00
2022-09-03T08:07:20.638Z,19.72
2022-09-03T08:12:25.319Z,19.69
2022-09-03T08:17:28.427Z,19.14
2022-09-03T08:22:31.683Z,19.24
2022-09-03T08:27:37.487Z,19.43
2022-09-03T08:32:40.832Z,19.84
2022-09-03T08:37:44.128Z,19.91
2022-09-03T08:43:06.867Z,20.10
2022-09-03T08:48:15.973Z,20.10
2022-09-03T08:53:25.076Z,20.06
2022-09-03T08:58:34.219Z,19.97
2022-09-03T09:03:49.234Z,20.28
2022-09-03T09:09:04.575Z,20.24
2022-09-03T09:14:18.570Z,20.23
2022-09-03T09:19:38.896Z,20.22
2022-09-03T09:24:48.505Z,20.30
2022-09-03T09:29:55.873Z,20.72
2022-09-03T09:35:01.159Z,20.95
2022-09-03T09:40:14.808Z,20.81
2022-09-03T09:45:26.487Z,21.01
2022-09-03T09:51:06.681Z,21.11
2022-09-03T09:56:21.369Z,21.25
2022-09-03T10:01:30.253Z,21.27
2022-09-03T10:06:54.035Z,21.80
2022-09-03T10:12:14.601Z,21.83
2022-09-03T10:17:28.379Z,21.85
2022-09-03T10:22:57.107Z,21.85
2022-09-03T10:28:02.175Z,22.26
2022-09-03T10:33:12.771Z,22.11
2022-09-03T10:38:23.329Z,22.20
2022-09-03T10:43:47.715Z,21.99
2022-09-03T10:49:17.016Z,22.07
2022-09-03T10:54:37.416Z,22.13
2022-09-03T10:59:59.722Z,22.18
2022-09-03T11:05:11.042Z,21.92
2022-09-03T11:16:33.919Z,22.04
2022-09-03T11:21:46.143Z,22.13
2022-09-03T11:27:02.501Z,21.98
2022-09-03T11:32:57.667Z,21.71
2022-09-03T11:38:05.189Z,22.77
2022-09-03T11:48:45.951Z,22.73
2022-09-03T11:53:59.329Z,22.91
2022-09-03T11:59:19.658Z,22.36
2022-09-03T12:04:29.903Z,22.31
2022-09-03T12:10:06.157Z,22.27
2022-09-03T12:15:27.691Z,22.12
2022-09-03T12:20:30.886Z,22.52
2022-09-03T12:25:36.200Z,22.39
2022-09-03T12:30:39.743Z,22.25
2022-09-03T12:35:58.949Z,22.19
2022-09-03T12:46:33.193Z,22.24
2022-09-03T12:51:51.114Z,22.44
2022-09-03T12:57:01.701Z,22.45
2022-09-03T13:02:07.695Z,21.94
2022-09-03T13:07:16.924Z,21.74
2022-09-03T13:12:33.311Z,22.18
2022-09-03T13:17:56.416Z,22.14
2022-09-03T13:23:15.613Z,22.32
2022-09-03T13:28:31.849Z,22.03
2022-09-03T13:33:39.772Z,22.35
2022-09-03T13:38:45.627Z,22.23
2022-09-03T13:43:58.108Z,22.22
2022-09-03T13:49:27.268Z,22.26
2022-09-03T13:54:48.565Z,22.07
2022-09-03T13:59:59.532Z,22.11
2022-09-03T14:10:22.061Z,21.99
2022-09-03T14:15:31.682Z,22.32
2022-09-03T14:20:42.502Z,22.15
2022-09-03T14:25:54.465Z,22.06
2022-09-03T14:31:08.323Z,22.10
2022-09-03T14:36:20.491Z,22.11
2022-09-03T14:41:44.833Z,22.31
2022-09-03T14:47:02.494Z,22.33
2022-09-03T14:52:24.317Z,22.28
2022-09-03T14:57:50.496Z,22.05
2022-09-03T15:03:28.437Z,21.99
2022-09-03T15:08:46.452Z,22.11
2022-09-03T15:13:53.841Z,22.13
2022-09-03T15:19:17.285Z,22.27
2022-09-03T15:24:28.790Z,22.16
2022-09-03T15:29:47.356Z,22.12
2022-09-03T15:35:05.699Z,22.12
2022-09-03T15:40:18.675Z,21.98
2022-09-03T15:45:32.938Z,21.93
2022-09-03T15:50:50.116Z,21.86
2022-09-03T15:56:10.472Z,21.87
2022-09-03T16:01:27.016Z,21.73
2022-09-03T16:06:38.341Z,21.79
2022-09-03T16:11:53.306Z,21.79
2022-09-03T16:17:03.844Z,21.73
2022-09-03T16:22:15.223Z,21.63
2022-09-03T16:27:23.887Z,21.70
2022-09-03T16:32:37.116Z,21.51
2022-09-03T16:37:50.912Z,21.56
2022-09-03T16:43:07.312Z,21.42
2022-09-03T16:48:27.475Z,21.34
2022-09-03T16:53:52.232Z,21.48
2022-09-03T16:59:02.846Z,21.42
2022-09-03T17:04:35.459Z,21.23
2022-09-03T17:09:56.159Z,21.17
2022-09-03T17:15:14.644Z,21.19
2022-09-03T17:20:21.399Z,21.00
2022-09-03T17:25:34.793Z,20.94
2022-09-03T17:30:45.081Z,20.88
2022-09-03T17:35:55.994Z,20.92
2022-09-03T17:41:12.895Z,20.79
2022-09-03T17:46:29.909Z,20.65
2022-09-03T17:51:42.451Z,20.55
2022-09-03T17:56:55.815Z,20.50
2022-09-03T18:02:04.945Z,20.32
2022-09-03T18:07:16.899Z,20.33
2022-09-03T18:12:33.520Z,20.24
2022-09-03T18:17:42.532Z,20.07
2022-09-03T18:23:09.161Z,20.01
2022-09-03T18:28:34.135Z,19.91
2022-09-03T18:33:55.841Z,19.88
2022-09-03T18:39:21.454Z,19.78
2022-09-03T18:45:12.373Z,19.71
2022-09-03T18:50:40.111Z,19.66
2022-09-03T18:56:14.407Z,19.60
2022-09-03T19:01:45.539Z,19.61
2022-09-03T19:07:17.407Z,19.52
2022-09-03T19:12:59.314Z,19.47
2022-09-03T19:18:46.414Z,19.34
2022-09-03T19:24:07.061Z,19.23
2022-09-03T19:29:43.394Z,19.20
2022-09-03T19:35:23.917Z,19.04
2022-09-03T19:40:59.371Z,18.98
2022-09-03T19:46:26.683Z,19.02
2022-09-03T19:51:53.462Z,18.89
2022-09-03T19:57:16.416Z,18.87
2022-09-03T20:02:36.729Z,18.77
2022-09-03T20:07:58.539Z,18.78
2022-09-03T20:13:08.267Z,18.67
2022-09-03T20:18:18.509Z,18.67
2022-09-03T20:23:31.534Z,18.62
2022-09-03T20:28:51.384Z,18.56
2022-09-03T20:34:05.450Z,18.53
2022-09-03T20:39:32.474Z,18.47
2022-09-03T20:44:50.485Z,18.36
2022-09-03T20:50:03.816Z,18.33
2022-09-03T20:55:13.666Z,18.30
2022-09-03T21:00:18.485Z,18.17
2022-09-03T21:05:28.117Z,18.02
2022-09-03T21:10:39.115Z,17.98
2022-09-03T21:15:56.458Z,17.84
2022-09-03T21:21:09.607Z,17.71
2022-09-03T21:26:21.389Z,17.61
2022-09-03T21:31:31.927Z,17.46
2022-09-03T21:36:44.401Z,17.54
2022-09-03T21:41:55.675Z,17.44
2022-09-03T21:47:02.584Z,17.32
2022-09-03T21:52:09.893Z,17.29
2022-09-03T21:57:25.894Z,17.19
2022-09-03T22:02:29.998Z,17.06
2022-09-03T22:07:44.981Z,17.04
2022-09-03T22:12:57.429Z,16.95
2022-09-03T22:18:07.362Z,16.99
2022-09-03T22:23:17.392Z,17.00
2022-09-03T22:28:29.374Z,16.91
2022-09-03T22:33:40.546Z,16.97
2022-09-03T22:39:16.503Z,16.96
2022-09-03T22:44:35.216Z,16.92
2022-09-03T22:49:50.159Z,16.90
2022-09-03T22:55:05.977Z,16.86
2022-09-03T23:00:13.905Z,16.69
2022-09-03T23:05:33.188Z,16.73
2022-09-03T23:10:56.319Z,16.68
2022-09-03T23:16:08.748Z,16.67
2022-09-03T23:21:22.193Z,16.70
2022-09-03T23:26:33.293Z,16.66
2022-09-03T23:31:38.186Z,16.63
2022-09-03T23:42:30.156Z,16.55
2022-09-03T23:47:45.637Z,16.54
2022-09-03T23:53:18.250Z,16.42
2022-09-03T23:58:30.319Z,16.41
